sensor_id;sensor_type;location;lat;lon;timestamp;P1;durP1;ratioP1;P2;durP2;ratioP2
23608;SDS011;11982;50.810;4.442;2023-04-25T00:01:20;25.52;;;6.72;;
23608;SDS011;11982;50.810;4.442;2023-04-25T00:03:47;27.20;;;6.78;;
23608;SDS011;11982;50.810;4.442;2023-04-25T00:06:13;30.83;;;5.78;;
23608;SDS011;11982;50.810;4.442;2023-04-25T00:08:39;31.02;;;7.22;;
23608;SDS011;11982;50.810;4.442;2023-04-25T00:11:05;26.73;;;6.07;;
23608;SDS011;11982;50.810;4.442;2023-04-25T00:13:31;27.77;;;5.90;;
23608;SDS011;11982;50.810;4.442;2023-04-25T00:15:57;28.83;;;5.82;;
23608;SDS011;11982;50.810;4.442;2023-04-25T00:18:23;34.10;;;6.47;;
23608;SDS011;11982;50.810;4.442;2023-04-25T00:20:49;28.98;;;6.63;;
23608;SDS011;11982;50.810;4.442;2023-04-25T00:23:16;29.23;;;5.72;;
23608;SDS011;11982;50.810;4.442;2023-04-25T00:25:45;27.45;;;6.20;;
23608;SDS011;11982;50.810;4.442;2023-04-25T00:28:11;28.33;;;6.22;;
23608;SDS011;11982;50.810;4.442;2023-04-25T00:30:38;28.15;;;6.25;;
23608;SDS011;11982;50.810;4.442;2023-04-25T00:33:04;23.50;;;5.90;;
23608;SDS011;11982;50.810;4.442;2023-04-25T00:35:30;25.80;;;6.00;;
23608;SDS011;11982;50.810;4.442;2023-04-25T00:37:56;23.63;;;5.57;;
23608;SDS011;11982;50.810;4.442;2023-04-25T00:40:22;26.73;;;5.45;;
23608;SDS011;11982;50.810;4.442;2023-04-25T00:42:47;37.05;;;6.88;;
23608;SDS011;11982;50.810;4.442;2023-04-25T00:45:14;22.77;;;6.00;;
23608;SDS011;11982;50.810;4.442;2023-04-25T00:47:40;22.85;;;5.70;;
23608;SDS011;11982;50.810;4.442;2023-04-25T00:50:06;36.03;;;6.32;;
23608;SDS011;11982;50.810;4.442;2023-04-25T00:52:33;27.17;;;6.72;;
23608;SDS011;11982;50.810;4.442;2023-04-25T00:54:59;28.38;;;6.00;;
23608;SDS011;11982;50.810;4.442;2023-04-25T00:57:25;22.70;;;6.60;;
23608;SDS011;11982;50.810;4.442;2023-04-25T00:59:51;31.73;;;7.15;;
23608;SDS011;11982;50.810;4.442;2023-04-25T01:02:18;25.35;;;6.53;;
23608;SDS011;11982;50.810;4.442;2023-04-25T01:04:45;28.90;;;6.63;;
23608;SDS011;11982;50.810;4.442;2023-04-25T01:07:12;26.58;;;6.50;;
23608;SDS011;11982;50.810;4.442;2023-04-25T01:09:38;35.20;;;7.43;;
23608;SDS011;11982;50.810;4.442;2023-04-25T01:12:04;26.77;;;6.50;;
23608;SDS011;11982;50.810;4.442;2023-04-25T01:14:30;28.20;;;6.63;;
23608;SDS011;11982;50.810;4.442;2023-04-25T01:16:56;30.83;;;6.82;;
23608;SDS011;11982;50.810;4.442;2023-04-25T01:19:22;25.77;;;6.68;;
23608;SDS011;11982;50.810;4.442;2023-04-25T01:21:49;30.00;;;7.78;;
23608;SDS011;11982;50.810;4.442;2023-04-25T01:24:15;33.38;;;7.57;;
23608;SDS011;11982;50.810;4.442;2023-04-25T01:26:42;30.02;;;7.03;;
23608;SDS011;11982;50.810;4.442;2023-04-25T01:29:15;45.38;;;7.93;;
23608;SDS011;11982;50.810;4.442;2023-04-25T01:31:42;27.50;;;6.78;;
23608;SDS011;11982;50.810;4.442;2023-04-25T01:34:09;31.38;;;7.47;;
23608;SDS011;11982;50.810;4.442;2023-04-25T01:36:35;42.78;;;8.48;;
23608;SDS011;11982;50.810;4.442;2023-04-25T01:39:01;29.55;;;7.57;;
23608;SDS011;11982;50.810;4.442;2023-04-25T01:41:27;42.33;;;7.72;;
23608;SDS011;11982;50.810;4.442;2023-04-25T01:43:53;30.58;;;8.13;;
23608;SDS011;11982;50.810;4.442;2023-04-25T01:46:19;30.75;;;8.05;;
23608;SDS011;11982;50.810;4.442;2023-04-25T01:48:45;38.63;;;7.95;;
23608;SDS011;11982;50.810;4.442;2023-04-25T01:51:10;28.90;;;7.15;;
23608;SDS011;11982;50.810;4.442;2023-04-25T01:53:37;38.75;;;7.28;;
23608;SDS011;11982;50.810;4.442;2023-04-25T01:56:03;38.80;;;8.13;;
23608;SDS011;11982;50.810;4.442;2023-04-25T01:58:30;39.60;;;7.78;;
23608;SDS011;11982;50.810;4.442;2023-04-25T02:00:55;30.65;;;8.10;;
23608;SDS011;11982;50.810;4.442;2023-04-25T02:03:21;40.65;;;8.35;;
23608;SDS011;11982;50.810;4.442;2023-04-25T02:05:47;35.28;;;8.27;;
23608;SDS011;11982;50.810;4.442;2023-04-25T02:08:13;31.55;;;8.10;;
23608;SDS011;11982;50.810;4.442;2023-04-25T02:10:38;42.58;;;8.60;;
23608;SDS011;11982;50.810;4.442;2023-04-25T02:13:04;24.70;;;7.70;;
23608;SDS011;11982;50.810;4.442;2023-04-25T02:15:30;29.13;;;8.00;;
23608;SDS011;11982;50.810;4.442;2023-04-25T02:17:56;33.10;;;9.15;;
23608;SDS011;11982;50.810;4.442;2023-04-25T02:20:23;30.35;;;8.45;;
23608;SDS011;11982;50.810;4.442;2023-04-25T02:22:49;41.25;;;9.63;;
23608;SDS011;11982;50.810;4.442;2023-04-25T02:25:16;40.83;;;8.68;;
23608;SDS011;11982;50.810;4.442;2023-04-25T02:27:43;38.63;;;9.02;;
23608;SDS011;11982;50.810;4.442;2023-04-25T02:30:09;43.65;;;10.30;;
23608;SDS011;11982;50.810;4.442;2023-04-25T02:32:35;31.30;;;9.32;;
23608;SDS011;11982;50.810;4.442;2023-04-25T02:35:01;42.05;;;10.43;;
23608;SDS011;11982;50.810;4.442;2023-04-25T02:37:30;35.08;;;10.30;;
23608;SDS011;11982;50.810;4.442;2023-04-25T02:39:57;33.65;;;10.02;;
23608;SDS011;11982;50.810;4.442;2023-04-25T02:42:22;31.92;;;9.88;;
23608;SDS011;11982;50.810;4.442;2023-04-25T02:44:48;45.50;;;10.70;;
23608;SDS011;11982;50.810;4.442;2023-04-25T02:47:14;35.78;;;9.30;;
23608;SDS011;11982;50.810;4.442;2023-04-25T02:49:39;35.70;;;9.65;;
23608;SDS011;11982;50.810;4.442;2023-04-25T02:52:05;42.08;;;9.75;;
23608;SDS011;11982;50.810;4.442;2023-04-25T02:54:31;39.05;;;10.00;;
23608;SDS011;11982;50.810;4.442;2023-04-25T02:56:57;37.75;;;9.80;;
23608;SDS011;11982;50.810;4.442;2023-04-25T02:59:23;35.42;;;9.82;;
23608;SDS011;11982;50.810;4.442;2023-04-25T03:01:48;31.70;;;10.10;;
23608;SDS011;11982;50.810;4.442;2023-04-25T03:04:14;30.95;;;8.75;;
23608;SDS011;11982;50.810;4.442;2023-04-25T03:06:40;35.90;;;10.00;;
23608;SDS011;11982;50.810;4.442;2023-04-25T03:09:06;38.00;;;10.52;;
23608;SDS011;11982;50.810;4.442;2023-04-25T03:11:32;42.90;;;11.10;;
23608;SDS011;11982;50.810;4.442;2023-04-25T03:13:57;41.80;;;10.73;;
23608;SDS011;11982;50.810;4.442;2023-04-25T03:16:23;37.88;;;10.68;;
23608;SDS011;11982;50.810;4.442;2023-04-25T03:18:49;32.10;;;9.45;;
23608;SDS011;11982;50.810;4.442;2023-04-25T03:21:15;28.95;;;10.00;;
23608;SDS011;11982;50.810;4.442;2023-04-25T03:23:42;35.25;;;10.63;;
23608;SDS011;11982;50.810;4.442;2023-04-25T03:26:07;39.47;;;10.15;;
23608;SDS011;11982;50.810;4.442;2023-04-25T03:28:33;37.30;;;10.27;;
23608;SDS011;11982;50.810;4.442;2023-04-25T03:30:59;34.78;;;10.75;;
23608;SDS011;11982;50.810;4.442;2023-04-25T03:33:25;42.83;;;10.00;;
23608;SDS011;11982;50.810;4.442;2023-04-25T03:35:50;36.83;;;10.85;;
23608;SDS011;11982;50.810;4.442;2023-04-25T03:38:16;29.83;;;10.13;;
23608;SDS011;11982;50.810;4.442;2023-04-25T03:40:42;44.22;;;10.68;;
23608;SDS011;11982;50.810;4.442;2023-04-25T03:43:08;39.22;;;10.63;;
23608;SDS011;11982;50.810;4.442;2023-04-25T03:45:33;50.90;;;10.82;;
23608;SDS011;11982;50.810;4.442;2023-04-25T03:47:59;35.75;;;8.98;;
23608;SDS011;11982;50.810;4.442;2023-04-25T03:50:25;32.97;;;9.00;;
23608;SDS011;11982;50.810;4.442;2023-04-25T03:52:50;40.28;;;9.27;;
23608;SDS011;11982;50.810;4.442;2023-04-25T03:55:16;35.80;;;8.55;;
23608;SDS011;11982;50.810;4.442;2023-04-25T03:57:42;36.90;;;9.13;;
23608;SDS011;11982;50.810;4.442;2023-04-25T04:00:08;32.90;;;9.00;;
23608;SDS011;11982;50.810;4.442;2023-04-25T04:02:34;40.63;;;9.10;;
23608;SDS011;11982;50.810;4.442;2023-04-25T04:05:01;40.22;;;9.57;;
23608;SDS011;11982;50.810;4.442;2023-04-25T04:07:27;37.60;;;9.10;;
23608;SDS011;11982;50.810;4.442;2023-04-25T04:09:53;33.72;;;9.98;;
23608;SDS011;11982;50.810;4.442;2023-04-25T04:12:19;38.55;;;10.05;;
23608;SDS011;11982;50.810;4.442;2023-04-25T04:14:44;33.67;;;9.15;;
23608;SDS011;11982;50.810;4.442;2023-04-25T04:17:10;37.35;;;9.13;;
23608;SDS011;11982;50.810;4.442;2023-04-25T04:19:36;34.22;;;8.27;;
23608;SDS011;11982;50.810;4.442;2023-04-25T04:22:01;23.02;;;8.30;;
23608;SDS011;11982;50.810;4.442;2023-04-25T04:24:27;30.48;;;8.82;;
23608;SDS011;11982;50.810;4.442;2023-04-25T04:26:53;36.75;;;9.55;;
23608;SDS011;11982;50.810;4.442;2023-04-25T04:29:18;27.30;;;8.60;;
23608;SDS011;11982;50.810;4.442;2023-04-25T04:31:49;30.95;;;8.43;;
23608;SDS011;11982;50.810;4.442;2023-04-25T04:34:15;24.73;;;8.32;;
23608;SDS011;11982;50.810;4.442;2023-04-25T04:36:42;27.73;;;8.27;;
23608;SDS011;11982;50.810;4.442;2023-04-25T04:39:10;37.40;;;8.43;;
23608;SDS011;11982;50.810;4.442;2023-04-25T04:41:35;35.97;;;8.50;;
23608;SDS011;11982;50.810;4.442;2023-04-25T04:44:01;25.92;;;8.05;;
23608;SDS011;11982;50.810;4.442;2023-04-25T04:46:27;35.20;;;9.35;;
23608;SDS011;11982;50.810;4.442;2023-04-25T04:48:53;28.38;;;9.52;;
23608;SDS011;11982;50.810;4.442;2023-04-25T04:51:21;29.17;;;8.30;;
23608;SDS011;11982;50.810;4.442;2023-04-25T04:53:46;25.30;;;7.82;;
23608;SDS011;11982;50.810;4.442;2023-04-25T04:56:12;33.25;;;8.15;;
23608;SDS011;11982;50.810;4.442;2023-04-25T04:58:38;32.65;;;8.45;;
23608;SDS011;11982;50.810;4.442;2023-04-25T05:01:03;38.95;;;8.60;;
23608;SDS011;11982;50.810;4.442;2023-04-25T05:03:30;28.63;;;9.13;;
23608;SDS011;11982;50.810;4.442;2023-04-25T05:05:55;28.20;;;7.53;;
23608;SDS011;11982;50.810;4.442;2023-04-25T05:08:21;32.42;;;9.48;;
23608;SDS011;11982;50.810;4.442;2023-04-25T05:10:46;28.80;;;8.32;;
23608;SDS011;11982;50.810;4.442;2023-04-25T05:13:12;31.40;;;9.63;;
23608;SDS011;11982;50.810;4.442;2023-04-25T05:15:38;26.77;;;9.02;;
23608;SDS011;11982;50.810;4.442;2023-04-25T05:18:03;31.05;;;8.55;;
23608;SDS011;11982;50.810;4.442;2023-04-25T05:20:29;36.67;;;8.73;;
23608;SDS011;11982;50.810;4.442;2023-04-25T05:22:55;37.03;;;10.27;;
23608;SDS011;11982;50.810;4.442;2023-04-25T05:25:20;32.30;;;9.63;;
23608;SDS011;11982;50.810;4.442;2023-04-25T05:27:46;30.33;;;8.50;;
23608;SDS011;11982;50.810;4.442;2023-04-25T05:30:12;38.33;;;9.23;;
23608;SDS011;11982;50.810;4.442;2023-04-25T05:32:37;35.17;;;9.50;;
23608;SDS011;11982;50.810;4.442;2023-04-25T05:35:03;34.20;;;9.70;;
23608;SDS011;11982;50.810;4.442;2023-04-25T05:37:31;32.85;;;8.88;;
23608;SDS011;11982;50.810;4.442;2023-04-25T05:39:57;27.75;;;8.18;;
23608;SDS011;11982;50.810;4.442;2023-04-25T05:42:23;27.45;;;8.15;;
23608;SDS011;11982;50.810;4.442;2023-04-25T05:44:49;37.33;;;8.82;;
23608;SDS011;11982;50.810;4.442;2023-04-25T05:47:15;30.52;;;8.48;;
23608;SDS011;11982;50.810;4.442;2023-04-25T05:49:40;28.77;;;8.32;;
23608;SDS011;11982;50.810;4.442;2023-04-25T05:52:06;27.20;;;8.02;;
23608;SDS011;11982;50.810;4.442;2023-04-25T05:54:31;26.08;;;7.38;;
23608;SDS011;11982;50.810;4.442;2023-04-25T05:56:57;33.50;;;8.30;;
23608;SDS011;11982;50.810;4.442;2023-04-25T05:59:23;27.75;;;7.97;;
23608;SDS011;11982;50.810;4.442;2023-04-25T06:01:48;18.45;;;6.85;;
23608;SDS011;11982;50.810;4.442;2023-04-25T06:04:14;31.10;;;7.18;;
23608;SDS011;11982;50.810;4.442;2023-04-25T06:06:43;37.40;;;8.20;;
23608;SDS011;11982;50.810;4.442;2023-04-25T06:09:08;31.98;;;7.93;;
23608;SDS011;11982;50.810;4.442;2023-04-25T06:11:34;22.58;;;6.88;;
23608;SDS011;11982;50.810;4.442;2023-04-25T06:14:00;23.05;;;6.25;;
23608;SDS011;11982;50.810;4.442;2023-04-25T06:16:26;32.20;;;7.60;;
23608;SDS011;11982;50.810;4.442;2023-04-25T06:18:51;26.15;;;7.28;;
23608;SDS011;11982;50.810;4.442;2023-04-25T06:21:17;25.05;;;6.70;;
23608;SDS011;11982;50.810;4.442;2023-04-25T06:23:46;29.90;;;7.78;;
23608;SDS011;11982;50.810;4.442;2023-04-25T06:26:12;33.58;;;7.82;;
23608;SDS011;11982;50.810;4.442;2023-04-25T06:28:37;29.80;;;8.30;;
23608;SDS011;11982;50.810;4.442;2023-04-25T06:31:03;28.55;;;7.18;;
23608;SDS011;11982;50.810;4.442;2023-04-25T06:33:29;40.50;;;8.68;;
23608;SDS011;11982;50.810;4.442;2023-04-25T06:35:55;30.80;;;8.10;;
23608;SDS011;11982;50.810;4.442;2023-04-25T06:38:20;30.23;;;8.25;;
23608;SDS011;11982;50.810;4.442;2023-04-25T06:40:46;34.13;;;8.27;;
23608;SDS011;11982;50.810;4.442;2023-04-25T06:43:12;32.33;;;9.13;;
23608;SDS011;11982;50.810;4.442;2023-04-25T06:45:38;34.47;;;9.63;;
23608;SDS011;11982;50.810;4.442;2023-04-25T06:48:03;30.42;;;8.85;;
23608;SDS011;11982;50.810;4.442;2023-04-25T06:50:29;30.10;;;8.80;;
23608;SDS011;11982;50.810;4.442;2023-04-25T06:52:55;28.17;;;9.35;;
23608;SDS011;11982;50.810;4.442;2023-04-25T06:55:20;26.58;;;8.77;;
23608;SDS011;11982;50.810;4.442;2023-04-25T06:57:46;26.75;;;8.55;;
23608;SDS011;11982;50.810;4.442;2023-04-25T07:00:12;33.45;;;10.13;;
23608;SDS011;11982;50.810;4.442;2023-04-25T07:02:38;37.60;;;11.00;;
23608;SDS011;11982;50.810;4.442;2023-04-25T07:05:04;34.75;;;10.55;;
23608;SDS011;11982;50.810;4.442;2023-04-25T07:07:30;35.70;;;9.98;;
23608;SDS011;11982;50.810;4.442;2023-04-25T07:09:56;34.25;;;8.60;;
23608;SDS011;11982;50.810;4.442;2023-04-25T07:12:21;29.35;;;6.47;;
23608;SDS011;11982;50.810;4.442;2023-04-25T07:14:47;23.20;;;6.57;;
23608;SDS011;11982;50.810;4.442;2023-04-25T07:17:13;24.38;;;6.70;;
23608;SDS011;11982;50.810;4.442;2023-04-25T07:19:38;21.13;;;6.57;;
23608;SDS011;11982;50.810;4.442;2023-04-25T07:22:05;18.73;;;5.68;;
23608;SDS011;11982;50.810;4.442;2023-04-25T07:24:31;28.65;;;6.30;;
23608;SDS011;11982;50.810;4.442;2023-04-25T07:26:57;26.55;;;6.38;;
23608;SDS011;11982;50.810;4.442;2023-04-25T07:29:23;26.63;;;6.63;;
23608;SDS011;11982;50.810;4.442;2023-04-25T07:31:49;30.73;;;8.40;;
23608;SDS011;11982;50.810;4.442;2023-04-25T07:34:15;18.92;;;5.53;;
23608;SDS011;11982;50.810;4.442;2023-04-25T07:36:44;28.15;;;6.45;;
23608;SDS011;11982;50.810;4.442;2023-04-25T07:39:10;19.40;;;5.55;;
23608;SDS011;11982;50.810;4.442;2023-04-25T07:41:35;24.02;;;5.80;;
23608;SDS011;11982;50.810;4.442;2023-04-25T07:44:01;17.30;;;4.63;;
23608;SDS011;11982;50.810;4.442;2023-04-25T07:46:27;23.92;;;5.03;;
23608;SDS011;11982;50.810;4.442;2023-04-25T07:48:52;22.88;;;5.03;;
23608;SDS011;11982;50.810;4.442;2023-04-25T07:51:18;24.70;;;4.53;;
23608;SDS011;11982;50.810;4.442;2023-04-25T07:53:45;22.77;;;4.30;;
23608;SDS011;11982;50.810;4.442;2023-04-25T07:56:11;17.20;;;4.53;;
23608;SDS011;11982;50.810;4.442;2023-04-25T07:58:36;25.85;;;4.43;;
23608;SDS011;11982;50.810;4.442;2023-04-25T08:01:02;24.00;;;4.28;;
23608;SDS011;11982;50.810;4.442;2023-04-25T08:03:28;26.95;;;4.55;;
23608;SDS011;11982;50.810;4.442;2023-04-25T08:05:54;14.05;;;3.90;;
23608;SDS011;11982;50.810;4.442;2023-04-25T08:11:19;17.80;;;4.68;;
23608;SDS011;11982;50.810;4.442;2023-04-25T08:13:51;21.52;;;4.60;;
23608;SDS011;11982;50.810;4.442;2023-04-25T08:16:17;18.50;;;4.45;;
23608;SDS011;11982;50.810;4.442;2023-04-25T08:18:43;16.52;;;4.43;;
23608;SDS011;11982;50.810;4.442;2023-04-25T08:21:08;26.52;;;5.32;;
23608;SDS011;11982;50.810;4.442;2023-04-25T08:23:36;22.90;;;4.38;;
23608;SDS011;11982;50.810;4.442;2023-04-25T08:26:02;17.15;;;4.22;;
23608;SDS011;11982;50.810;4.442;2023-04-25T08:28:28;18.58;;;4.53;;
23608;SDS011;11982;50.810;4.442;2023-04-25T08:30:53;22.92;;;4.35;;
23608;SDS011;11982;50.810;4.442;2023-04-25T08:33:19;19.63;;;4.03;;
23608;SDS011;11982;50.810;4.442;2023-04-25T08:35:45;18.70;;;4.53;;
23608;SDS011;11982;50.810;4.442;2023-04-25T08:38:11;16.30;;;4.57;;
23608;SDS011;11982;50.810;4.442;2023-04-25T08:40:37;19.98;;;4.10;;
23608;SDS011;11982;50.810;4.442;2023-04-25T08:43:05;21.55;;;5.43;;
23608;SDS011;11982;50.810;4.442;2023-04-25T08:45:36;23.70;;;5.05;;
23608;SDS011;11982;50.810;4.442;2023-04-25T08:48:05;17.60;;;4.93;;
23608;SDS011;11982;50.810;4.442;2023-04-25T08:50:36;14.75;;;3.70;;
23608;SDS011;11982;50.810;4.442;2023-04-25T08:53:08;16.83;;;4.28;;
23608;SDS011;11982;50.810;4.442;2023-04-25T08:55:38;23.70;;;4.68;;
23608;SDS011;11982;50.810;4.442;2023-04-25T08:58:06;18.92;;;4.47;;
23608;SDS011;11982;50.810;4.442;2023-04-25T09:00:35;14.65;;;3.58;;
23608;SDS011;11982;50.810;4.442;2023-04-25T09:03:01;14.18;;;3.60;;
23608;SDS011;11982;50.810;4.442;2023-04-25T09:05:27;16.13;;;3.83;;
23608;SDS011;11982;50.810;4.442;2023-04-25T09:07:53;17.45;;;3.80;;
23608;SDS011;11982;50.810;4.442;2023-04-25T09:10:21;12.43;;;3.35;;
23608;SDS011;11982;50.810;4.442;2023-04-25T09:15:50;14.60;;;3.60;;
23608;SDS011;11982;50.810;4.442;2023-04-25T09:18:28;14.38;;;3.30;;
23608;SDS011;11982;50.810;4.442;2023-04-25T09:20:56;12.13;;;3.75;;
23608;SDS011;11982;50.810;4.442;2023-04-25T09:23:45;16.08;;;4.25;;
23608;SDS011;11982;50.810;4.442;2023-04-25T09:26:15;10.73;;;3.22;;
23608;SDS011;11982;50.810;4.442;2023-04-25T09:28:42;18.30;;;4.22;;
23608;SDS011;11982;50.810;4.442;2023-04-25T09:31:09;20.50;;;3.53;;
23608;SDS011;11982;50.810;4.442;2023-04-25T09:33:36;20.10;;;3.33;;
23608;SDS011;11982;50.810;4.442;2023-04-25T09:38:30;12.40;;;3.72;;
23608;SDS011;11982;50.810;4.442;2023-04-25T09:40:56;11.50;;;3.65;;
23608;SDS011;11982;50.810;4.442;2023-04-25T09:43:23;13.45;;;3.53;;
23608;SDS011;11982;50.810;4.442;2023-04-25T09:45:50;12.68;;;3.33;;
23608;SDS011;11982;50.810;4.442;2023-04-25T09:48:18;12.88;;;3.10;;
23608;SDS011;11982;50.810;4.442;2023-04-25T09:50:45;17.45;;;3.28;;
23608;SDS011;11982;50.810;4.442;2023-04-25T09:53:40;15.68;;;3.08;;
23608;SDS011;11982;50.810;4.442;2023-04-25T09:56:11;18.83;;;2.97;;
23608;SDS011;11982;50.810;4.442;2023-04-25T09:58:38;17.17;;;3.50;;
23608;SDS011;11982;50.810;4.442;2023-04-25T10:01:06;11.38;;;3.50;;
23608;SDS011;11982;50.810;4.442;2023-04-25T10:03:33;18.52;;;3.55;;
23608;SDS011;11982;50.810;4.442;2023-04-25T10:06:01;12.88;;;3.92;;
23608;SDS011;11982;50.810;4.442;2023-04-25T10:08:33;12.20;;;3.03;;
23608;SDS011;11982;50.810;4.442;2023-04-25T10:11:03;17.58;;;3.08;;
23608;SDS011;11982;50.810;4.442;2023-04-25T10:13:33;15.52;;;3.83;;
23608;SDS011;11982;50.810;4.442;2023-04-25T10:16:01;11.80;;;2.97;;
23608;SDS011;11982;50.810;4.442;2023-04-25T10:18:29;13.60;;;3.10;;
23608;SDS011;11982;50.810;4.442;2023-04-25T10:20:59;12.80;;;3.10;;
23608;SDS011;11982;50.810;4.442;2023-04-25T10:23:27;11.30;;;3.13;;
23608;SDS011;11982;50.810;4.442;2023-04-25T10:25:55;10.73;;;2.70;;
23608;SDS011;11982;50.810;4.442;2023-04-25T10:28:21;12.88;;;3.15;;
23608;SDS011;11982;50.810;4.442;2023-04-25T10:30:57;9.52;;;2.72;;
23608;SDS011;11982;50.810;4.442;2023-04-25T10:33:33;12.45;;;2.97;;
23608;SDS011;11982;50.810;4.442;2023-04-25T10:36:08;21.25;;;3.92;;
23608;SDS011;11982;50.810;4.442;2023-04-25T10:38:38;10.75;;;3.20;;
23608;SDS011;11982;50.810;4.442;2023-04-25T10:41:05;6.53;;;2.58;;
23608;SDS011;11982;50.810;4.442;2023-04-25T10:46:02;11.60;;;2.33;;
23608;SDS011;11982;50.810;4.442;2023-04-25T10:48:49;7.95;;;2.00;;
23608;SDS011;11982;50.810;4.442;2023-04-25T10:51:22;6.32;;;1.77;;
23608;SDS011;11982;50.810;4.442;2023-04-25T10:53:57;8.98;;;2.08;;
23608;SDS011;11982;50.810;4.442;2023-04-25T10:59:07;9.30;;;1.90;;
23608;SDS011;11982;50.810;4.442;2023-04-25T11:01:36;8.13;;;1.83;;
23608;SDS011;11982;50.810;4.442;2023-04-25T11:04:21;5.95;;;1.70;;
23608;SDS011;11982;50.810;4.442;2023-04-25T11:09:40;9.43;;;2.10;;
23608;SDS011;11982;50.810;4.442;2023-04-25T11:12:09;8.70;;;1.92;;
23608;SDS011;11982;50.810;4.442;2023-04-25T11:14:36;10.85;;;2.05;;
23608;SDS011;11982;50.810;4.442;2023-04-25T11:17:02;8.18;;;2.08;;
23608;SDS011;11982;50.810;4.442;2023-04-25T11:19:28;12.80;;;2.53;;
23608;SDS011;11982;50.810;4.442;2023-04-25T11:21:58;8.50;;;2.20;;
23608;SDS011;11982;50.810;4.442;2023-04-25T11:27:00;7.60;;;2.20;;
23608;SDS011;11982;50.810;4.442;2023-04-25T11:29:29;12.50;;;2.30;;
23608;SDS011;11982;50.810;4.442;2023-04-25T11:31:56;13.55;;;2.75;;
23608;SDS011;11982;50.810;4.442;2023-04-25T11:34:23;14.70;;;2.78;;
23608;SDS011;11982;50.810;4.442;2023-04-25T11:36:50;11.48;;;2.25;;
23608;SDS011;11982;50.810;4.442;2023-04-25T11:39:17;15.40;;;2.40;;
23608;SDS011;11982;50.810;4.442;2023-04-25T11:41:46;8.05;;;2.03;;
23608;SDS011;11982;50.810;4.442;2023-04-25T11:44:12;9.73;;;2.67;;
23608;SDS011;11982;50.810;4.442;2023-04-25T11:46:41;11.88;;;2.60;;
23608;SDS011;11982;50.810;4.442;2023-04-25T11:49:07;12.60;;;2.13;;
23608;SDS011;11982;50.810;4.442;2023-04-25T11:52:06;10.90;;;2.42;;
23608;SDS011;11982;50.810;4.442;2023-04-25T11:54:25;12.27;;;2.33;;
23608;SDS011;11982;50.810;4.442;2023-04-25T11:56:51;15.60;;;2.42;;
23608;SDS011;11982;50.810;4.442;2023-04-25T11:59:16;13.45;;;2.97;;
23608;SDS011;11982;50.810;4.442;2023-04-25T12:01:49;14.05;;;2.90;;
23608;SDS011;11982;50.810;4.442;2023-04-25T12:04:22;8.43;;;2.17;;
23608;SDS011;11982;50.810;4.442;2023-04-25T12:06:49;5.72;;;1.80;;
23608;SDS011;11982;50.810;4.442;2023-04-25T12:09:32;6.13;;;1.73;;
23608;SDS011;11982;50.810;4.442;2023-04-25T12:11:59;5.60;;;1.42;;
23608;SDS011;11982;50.810;4.442;2023-04-25T12:14:32;8.38;;;2.13;;
23608;SDS011;11982;50.810;4.442;2023-04-25T12:17:00;10.88;;;2.10;;
23608;SDS011;11982;50.810;4.442;2023-04-25T12:19:34;7.95;;;2.08;;
23608;SDS011;11982;50.810;4.442;2023-04-25T12:22:01;7.43;;;1.90;;
23608;SDS011;11982;50.810;4.442;2023-04-25T12:24:32;7.57;;;1.77;;
23608;SDS011;11982;50.810;4.442;2023-04-25T12:27:03;4.22;;;1.95;;
23608;SDS011;11982;50.810;4.442;2023-04-25T12:29:30;10.70;;;2.42;;
23608;SDS011;11982;50.810;4.442;2023-04-25T12:31:57;5.78;;;1.75;;
23608;SDS011;11982;50.810;4.442;2023-04-25T12:34:24;6.95;;;1.95;;
23608;SDS011;11982;50.810;4.442;2023-04-25T12:36:51;5.43;;;1.42;;
23608;SDS011;11982;50.810;4.442;2023-04-25T12:39:17;4.88;;;1.83;;
23608;SDS011;11982;50.810;4.442;2023-04-25T12:41:49;7.93;;;2.13;;
23608;SDS011;11982;50.810;4.442;2023-04-25T12:47:40;4.60;;;1.33;;
23608;SDS011;11982;50.810;4.442;2023-04-25T12:50:06;6.45;;;1.45;;
23608;SDS011;11982;50.810;4.442;2023-04-25T12:52:32;4.03;;;1.40;;
23608;SDS011;11982;50.810;4.442;2023-04-25T12:54:57;6.00;;;1.30;;
23608;SDS011;11982;50.810;4.442;2023-04-25T12:57:23;6.13;;;1.42;;
23608;SDS011;11982;50.810;4.442;2023-04-25T12:59:49;7.05;;;1.75;;
23608;SDS011;11982;50.810;4.442;2023-04-25T13:02:15;6.57;;;1.40;;
23608;SDS011;11982;50.810;4.442;2023-04-25T13:04:40;8.02;;;1.77;;
23608;SDS011;11982;50.810;4.442;2023-04-25T13:07:06;6.97;;;1.63;;
23608;SDS011;11982;50.810;4.442;2023-04-25T13:09:32;8.05;;;2.08;;
23608;SDS011;11982;50.810;4.442;2023-04-25T13:11:58;5.82;;;1.45;;
23608;SDS011;11982;50.810;4.442;2023-04-25T13:17:45;7.35;;;1.88;;
23608;SDS011;11982;50.810;4.442;2023-04-25T13:20:12;7.55;;;2.03;;
23608;SDS011;11982;50.810;4.442;2023-04-25T13:22:40;7.80;;;1.60;;
23608;SDS011;11982;50.810;4.442;2023-04-25T13:25:07;7.72;;;1.80;;
23608;SDS011;11982;50.810;4.442;2023-04-25T13:27:33;9.60;;;2.13;;
23608;SDS011;11982;50.810;4.442;2023-04-25T13:30:00;9.60;;;2.10;;
23608;SDS011;11982;50.810;4.442;2023-04-25T13:32:31;5.88;;;1.70;;
23608;SDS011;11982;50.810;4.442;2023-04-25T13:34:58;10.70;;;2.35;;
23608;SDS011;11982;50.810;4.442;2023-04-25T13:37:24;6.65;;;1.90;;
23608;SDS011;11982;50.810;4.442;2023-04-25T13:39:50;8.38;;;1.90;;
23608;SDS011;11982;50.810;4.442;2023-04-25T13:42:16;10.75;;;2.17;;
23608;SDS011;11982;50.810;4.442;2023-04-25T13:48:03;6.72;;;1.85;;
23608;SDS011;11982;50.810;4.442;2023-04-25T13:50:29;8.43;;;1.83;;
23608;SDS011;11982;50.810;4.442;2023-04-25T13:52:55;7.00;;;1.45;;
23608;SDS011;11982;50.810;4.442;2023-04-25T13:55:20;14.75;;;2.08;;
23608;SDS011;11982;50.810;4.442;2023-04-25T13:57:46;5.78;;;1.50;;
23608;SDS011;11982;50.810;4.442;2023-04-25T14:00:12;5.00;;;1.63;;
23608;SDS011;11982;50.810;4.442;2023-04-25T14:02:38;5.93;;;1.60;;
23608;SDS011;11982;50.810;4.442;2023-04-25T14:05:04;5.30;;;1.52;;
23608;SDS011;11982;50.810;4.442;2023-04-25T14:07:30;8.88;;;1.80;;
23608;SDS011;11982;50.810;4.442;2023-04-25T14:09:56;4.22;;;1.75;;
23608;SDS011;11982;50.810;4.442;2023-04-25T14:12:23;7.57;;;1.88;;
23608;SDS011;11982;50.810;4.442;2023-04-25T14:18:10;6.50;;;1.60;;
23608;SDS011;11982;50.810;4.442;2023-04-25T14:20:36;7.60;;;1.90;;
23608;SDS011;11982;50.810;4.442;2023-04-25T14:23:02;7.95;;;1.67;;
23608;SDS011;11982;50.810;4.442;2023-04-25T14:25:28;8.23;;;1.70;;
23608;SDS011;11982;50.810;4.442;2023-04-25T14:27:55;9.45;;;2.10;;
23608;SDS011;11982;50.810;4.442;2023-04-25T14:33:43;8.10;;;1.42;;
23608;SDS011;11982;50.810;4.442;2023-04-25T14:36:09;8.07;;;2.33;;
23608;SDS011;11982;50.810;4.442;2023-04-25T14:38:35;5.10;;;1.63;;
23608;SDS011;11982;50.810;4.442;2023-04-25T14:41:00;5.00;;;1.40;;
23608;SDS011;11982;50.810;4.442;2023-04-25T14:43:26;5.10;;;1.67;;
23608;SDS011;11982;50.810;4.442;2023-04-25T14:45:52;7.22;;;1.67;;
23608;SDS011;11982;50.810;4.442;2023-04-25T14:48:18;7.72;;;1.77;;
23608;SDS011;11982;50.810;4.442;2023-04-25T14:50:45;10.77;;;2.00;;
23608;SDS011;11982;50.810;4.442;2023-04-25T14:53:11;6.50;;;1.55;;
23608;SDS011;11982;50.810;4.442;2023-04-25T14:55:37;6.82;;;1.75;;
23608;SDS011;11982;50.810;4.442;2023-04-25T14:58:03;13.00;;;1.90;;
23608;SDS011;11982;50.810;4.442;2023-04-25T15:03:51;5.28;;;1.42;;
23608;SDS011;11982;50.810;4.442;2023-04-25T15:06:17;6.50;;;1.73;;
23608;SDS011;11982;50.810;4.442;2023-04-25T15:08:43;7.25;;;1.60;;
23608;SDS011;11982;50.810;4.442;2023-04-25T15:11:08;9.07;;;2.40;;
23608;SDS011;11982;50.810;4.442;2023-04-25T15:13:35;7.57;;;1.98;;